Time;durP1;ratioP1;P1;durP2;ratioP2;P2;SDS_P1;SDS_P2;PMS_P1;PMS_P2;Temp;Humidity;BMP_temperature;BMP_pressure;BME280_temperature;BME280_humidity;BME280_pressure;Samples;Min_cycle;Max_cycle;Signal;HPM_P1;HPM_P2
2022/07/08 00:00:12;;;;;;;5.43;3.28;;;;;;;;;;5012236;28;20671;-75
2022/07/08 00:02:37;;;;;;;11.10;3.70;;;;;;;;;;5012040;28;20056;-75
2022/07/08 00:05:03;;;;;;;13.77;3.72;;;;;;;;;;5010816;28;20474;-75
2022/07/08 00:07:28;;;;;;;8.98;2.88;;;;;;;;;;5010406;28;20504;-75
2022/07/08 00:09:54;;;;;;;10.38;3.47;;;;;;;;;;5012055;28;20026;-76
2022/07/08 00:12:22;;;;;;;11.02;3.35;;;;;;;;;;5010481;28;20065;-76
2022/07/08 00:14:48;;;;;;;9.30;3.22;;;;;;;;;;5012048;28;20183;-75
2022/07/08 00:17:13;;;;;;;11.88;4.15;;;;;;;;;;5011808;28;20130;-76
2022/07/08 00:19:39;;;;;;;15.05;3.65;;;;;;;;;;5010051;28;20060;-76
2022/07/08 00:22:04;;;;;;;12.30;4.00;;;;;;;;;;5011897;28;20269;-76
2022/07/08 00:24:30;;;;;;;11.35;3.83;;;;;;;;;;5009879;28;20491;-76
2022/07/08 00:26:55;;;;;;;11.65;4.15;;;;;;;;;;5011746;28;20633;-76
2022/07/08 00:29:21;;;;;;;10.70;3.35;;;;;;;;;;5010156;28;20030;-76
2022/07/08 00:31:46;;;;;;;10.40;3.03;;;;;;;;;;5010248;28;20122;-75
2022/07/08 00:34:12;;;;;;;7.65;2.92;;;;;;;;;;5010406;28;20040;-75
2022/07/08 00:36:37;;;;;;;12.95;3.03;;;;;;;;;;5009977;28;20036;-75
2022/07/08 00:39:03;;;;;;;14.45;3.70;;;;;;;;;;5011717;28;20072;-76
2022/07/08 00:41:29;;;;;;;9.10;2.80;;;;;;;;;;5009818;28;20112;-75
2022/07/08 00:43:55;;;;;;;10.45;3.30;;;;;;;;;;5010184;28;20371;-75
2022/07/08 00:46:21;;;;;;;10.48;2.97;;;;;;;;;;5009550;28;20034;-75
2022/07/08 00:48:48;;;;;;;10.90;3.30;;;;;;;;;;5011310;28;20237;-75
2022/07/08 00:51:16;;;;;;;7.28;2.70;;;;;;;;;;5009763;28;20477;-75
2022/07/08 00:53:45;;;;;;;8.60;2.85;;;;;;;;;;5011097;28;20068;-75
2022/07/08 00:56:11;;;;;;;10.43;3.65;;;;;;;;;;5009661;28;20530;-75
2022/07/08 00:58:39;;;;;;;8.45;2.85;;;;;;;;;;5009387;28;20129;-75
2022/07/08 01:01:04;;;;;;;10.43;3.17;;;;;;;;;;5009801;28;20030;-75
2022/07/08 01:03:30;;;;;;;12.13;3.13;;;;;;;;;;5009606;28;20076;-75
2022/07/08 01:05:55;;;;;;;13.68;2.85;;;;;;;;;;5011081;28;20147;-75
2022/07/08 01:08:22;;;;;;;7.88;2.80;;;;;;;;;;5010738;28;20053;-75
2022/07/08 01:10:48;;;;;;;13.30;2.90;;;;;;;;;;5009449;28;20045;-75
2022/07/08 01:13:14;;;;;;;14.77;3.05;;;;;;;;;;5009467;28;20029;-75
2022/07/08 01:15:40;;;;;;;17.88;3.28;;;;;;;;;;5010974;28;20026;-74
2022/07/08 01:18:06;;;;;;;14.57;2.72;;;;;;;;;;5010675;28;20393;-75
2022/07/08 01:20:32;;;;;;;12.10;2.60;;;;;;;;;;5010684;28;20026;-75
2022/07/08 01:22:58;;;;;;;11.18;3.08;;;;;;;;;;5009198;28;20481;-75
2022/07/08 01:25:23;;;;;;;16.65;2.97;;;;;;;;;;5010762;28;20046;-75
2022/07/08 01:27:49;;;;;;;12.35;2.30;;;;;;;;;;5011073;28;20057;-75
2022/07/08 01:30:14;;;;;;;8.63;3.03;;;;;;;;;;5010803;28;20034;-75
2022/07/08 01:32:41;;;;;;;12.23;2.63;;;;;;;;;;5009178;28;20034;-75
2022/07/08 01:35:08;;;;;;;16.65;3.05;;;;;;;;;;5010894;28;20033;-74
2022/07/08 01:37:33;;;;;;;8.38;2.25;;;;;;;;;;5010107;28;20041;-74
2022/07/08 01:39:59;;;;;;;9.18;2.75;;;;;;;;;;5010004;28;20097;-74
2022/07/08 01:42:24;;;;;;;18.00;2.83;;;;;;;;;;5009225;28;20029;-74
2022/07/08 01:44:50;;;;;;;7.95;2.88;;;;;;;;;;5010525;28;20026;-74
2022/07/08 01:47:15;;;;;;;9.13;2.67;;;;;;;;;;5009174;28;20030;-75
2022/07/08 01:49:41;;;;;;;14.70;3.08;;;;;;;;;;5010609;28;20064;-74
2022/07/08 01:52:08;;;;;;;8.60;2.42;;;;;;;;;;5009004;28;20036;-75
2022/07/08 01:54:33;;;;;;;7.57;2.17;;;;;;;;;;5010142;28;20026;-74
2022/07/08 01:57:15;;;;;;;13.13;2.40;;;;;;;;;;5010031;28;20033;-73
2022/07/08 01:59:41;;;;;;;;;;;;;;;;;;5008900;28;20046;-74
2022/07/08 02:02:07;;;;;;;12.00;2.63;;;;;;;;;;5008573;28;19909;-74
2022/07/08 02:04:32;;;;;;;8.23;2.28;;;;;;;;;;5009830;28;20030;-74
2022/07/08 02:06:58;;;;;;;14.43;2.75;;;;;;;;;;5008694;28;20041;-74
2022/07/08 02:09:23;;;;;;;9.10;2.33;;;;;;;;;;5010167;28;20116;-74
2022/07/08 02:14:33;;;;;;;12.23;2.40;;;;;;;;;;5010102;28;20025;-74
2022/07/08 02:16:58;;;;;;;12.23;2.28;;;;;;;;;;5008659;28;20030;-75
2022/07/08 02:19:24;;;;;;;8.90;2.40;;;;;;;;;;5008557;28;20026;-75
2022/07/08 02:21:50;;;;;;;8.73;2.92;;;;;;;;;;5008528;28;20381;-74
2022/07/08 02:24:16;;;;;;;9.85;2.65;;;;;;;;;;5009674;28;20568;-74
2022/07/08 02:26:41;;;;;;;5.40;2.38;;;;;;;;;;5008376;28;20038;-76
2022/07/08 02:29:07;;;;;;;10.40;3.25;;;;;;;;;;5025024;28;20117;-74
2022/07/08 02:31:32;;;;;;;10.23;3.78;;;;;;;;;;5009580;28;20046;-73
2022/07/08 02:33:58;;;;;;;14.27;2.70;;;;;;;;;;5008528;28;20029;-74
2022/07/08 02:36:23;;;;;;;7.95;3.15;;;;;;;;;;5009765;28;20393;-74
2022/07/08 02:38:49;;;;;;;8.73;2.88;;;;;;;;;;5009961;28;20454;-75
2022/07/08 02:41:14;;;;;;;10.57;3.05;;;;;;;;;;5008594;28;20029;-75
2022/07/08 02:43:40;;;;;;;7.40;2.75;;;;;;;;;;5009577;28;20101;-75
2022/07/08 02:46:05;;;;;;;8.68;3.35;;;;;;;;;;5009945;28;20026;-74
2022/07/08 02:48:31;;;;;;;11.52;3.53;;;;;;;;;;5008426;28;20029;-74
2022/07/08 02:50:57;;;;;;;13.90;3.58;;;;;;;;;;5008423;28;20034;-74
2022/07/08 02:53:23;;;;;;;10.43;3.45;;;;;;;;;;5024906;28;20416;-74
2022/07/08 02:55:48;;;;;;;9.50;3.83;;;;;;;;;;5008117;28;20424;-74
2022/07/08 02:58:14;;;;;;;6.18;3.35;;;;;;;;;;5009555;28;20032;-74
2022/07/08 03:00:39;;;;;;;18.13;4.10;;;;;;;;;;5024823;28;20529;-74
2022/07/08 03:03:05;;;;;;;9.80;3.58;;;;;;;;;;5009889;28;20105;-74
2022/07/08 03:05:30;;;;;;;8.85;4.45;;;;;;;;;;5009436;28;20053;-74
2022/07/08 03:07:56;;;;;;;10.80;4.40;;;;;;;;;;5009819;28;20125;-75
2022/07/08 03:10:22;;;;;;;7.93;4.13;;;;;;;;;;5008572;28;20030;-74
2022/07/08 03:12:47;;;;;;;15.15;4.53;;;;;;;;;;5009586;28;20033;-75
2022/07/08 03:15:12;;;;;;;12.25;4.28;;;;;;;;;;5015174;28;20057;-73
2022/07/08 03:17:38;;;;;;;12.25;5.93;;;;;;;;;;5017087;28;20433;-74
2022/07/08 03:20:04;;;;;;;12.65;4.72;;;;;;;;;;5018913;28;20529;-75
2022/07/08 03:22:30;;;;;;;8.57;5.15;;;;;;;;;;5018153;28;20113;-75
2022/07/08 03:24:55;;;;;;;16.55;5.03;;;;;;;;;;5012637;28;20633;-75
2022/07/08 03:27:21;;;;;;;9.70;5.00;;;;;;;;;;5029236;28;20029;-74
2022/07/08 03:29:46;;;;;;;14.50;5.00;;;;;;;;;;5013171;28;20080;-76
2022/07/08 03:32:12;;;;;;;13.00;5.45;;;;;;;;;;5011976;28;20032;-74
2022/07/08 03:34:37;;;;;;;12.73;4.68;;;;;;;;;;5012611;28;20026;-75
2022/07/08 03:37:03;;;;;;;13.82;5.45;;;;;;;;;;5011564;28;20072;-74
2022/07/08 03:39:28;;;;;;;15.05;4.85;;;;;;;;;;5011199;28;20475;-75
2022/07/08 03:41:54;;;;;;;12.23;5.15;;;;;;;;;;5012775;28;20025;-75
2022/07/08 03:44:19;;;;;;;11.60;5.53;;;;;;;;;;5011337;28;20470;-74
2022/07/08 03:46:45;;;;;;;13.40;4.68;;;;;;;;;;5011197;28;20025;-74
2022/07/08 03:49:10;;;;;;;12.93;5.40;;;;;;;;;;5011295;28;20038;-75
2022/07/08 03:51:36;;;;;;;10.27;5.55;;;;;;;;;;5011365;28;20025;-75
2022/07/08 03:54:01;;;;;;;12.40;5.55;;;;;;;;;;5012360;28;20076;-75
2022/07/08 03:56:27;;;;;;;20.70;6.32;;;;;;;;;;5011069;28;20428;-75
2022/07/08 03:58:52;;;;;;;14.98;6.00;;;;;;;;;;5012576;28;20036;-75
2022/07/08 04:01:18;;;;;;;14.40;5.28;;;;;;;;;;5012979;28;20056;-75
2022/07/08 04:03:44;;;;;;;13.80;6.10;;;;;;;;;;5012697;28;20030;-75
2022/07/08 04:06:09;;;;;;;9.75;6.28;;;;;;;;;;5011219;28;20545;-75
2022/07/08 04:08:35;;;;;;;8.57;6.00;;;;;;;;;;5012412;28;20466;-75
2022/07/08 04:11:00;;;;;;;19.73;6.03;;;;;;;;;;5012859;28;20030;-75
2022/07/08 04:13:29;;;;;;;14.02;5.45;;;;;;;;;;5012484;28;20492;-73
2022/07/08 04:15:55;;;;;;;14.13;6.35;;;;;;;;;;5011460;28;20155;-74
2022/07/08 04:18:21;;;;;;;17.83;5.53;;;;;;;;;;5012683;28;20037;-74
2022/07/08 04:20:47;;;;;;;13.60;5.97;;;;;;;;;;5011169;28;20100;-76
2022/07/08 04:23:13;;;;;;;11.15;5.78;;;;;;;;;;5010934;28;20030;-75
2022/07/08 04:25:39;;;;;;;16.85;6.93;;;;;;;;;;5012148;28;20050;-75
2022/07/08 04:28:05;;;;;;;12.32;5.30;;;;;;;;;;5011045;28;20030;-74
2022/07/08 04:30:30;;;;;;;15.65;5.60;;;;;;;;;;5027569;28;20029;-75
2022/07/08 04:32:56;;;;;;;10.50;6.72;;;;;;;;;;5010523;28;20053;-75
2022/07/08 04:35:21;;;;;;;16.05;6.75;;;;;;;;;;5012178;28;20207;-74
2022/07/08 04:37:48;;;;;;;18.20;6.03;;;;;;;;;;5012291;28;20049;-74
2022/07/08 04:40:15;;;;;;;13.60;6.20;;;;;;;;;;5011916;28;20040;-75
2022/07/08 04:42:41;;;;;;;14.60;6.70;;;;;;;;;;5010448;28;20476;-74
2022/07/08 04:45:07;;;;;;;17.90;7.80;;;;;;;;;;5011405;28;20040;-73
2022/07/08 04:47:32;;;;;;;13.38;6.20;;;;;;;;;;5009884;28;20030;-75
2022/07/08 04:49:58;;;;;;;11.18;5.95;;;;;;;;;;5010262;28;20034;-74
2022/07/08 04:52:23;;;;;;;15.65;5.82;;;;;;;;;;5011666;28;20395;-74
2022/07/08 04:54:49;;;;;;;12.70;6.63;;;;;;;;;;5011270;28;20037;-75
2022/07/08 04:57:14;;;;;;;13.23;6.30;;;;;;;;;;5010391;28;20026;-75
2022/07/08 04:59:40;;;;;;;11.75;6.43;;;;;;;;;;5010482;28;20116;-75
2022/07/08 05:02:05;;;;;;;15.07;6.25;;;;;;;;;;5012058;28;20076;-75
2022/07/08 05:04:31;;;;;;;13.65;5.53;;;;;;;;;;5010205;28;20033;-74
2022/07/08 05:06:56;;;;;;;13.45;6.03;;;;;;;;;;5026913;28;20438;-75
2022/07/08 05:09:22;;;;;;;24.58;6.18;;;;;;;;;;5010067;28;20030;-74
2022/07/08 05:11:47;;;;;;;20.95;6.63;;;;;;;;;;5011383;28;20022;-74
2022/07/08 05:14:13;;;;;;;11.27;5.72;;;;;;;;;;5011475;28;20200;-75
2022/07/08 05:16:40;;;;;;;16.02;6.13;;;;;;;;;;5009709;28;20037;-75
2022/07/08 05:19:06;;;;;;;16.90;6.47;;;;;;;;;;5010591;28;20045;-75
2022/07/08 05:21:32;;;;;;;17.55;5.78;;;;;;;;;;5010995;28;20034;-75
2022/07/08 05:23:58;;;;;;;15.32;6.53;;;;;;;;;;5010444;28;20116;-75
2022/07/08 05:26:23;;;;;;;15.23;6.30;;;;;;;;;;5010730;28;20049;-75
2022/07/08 05:28:49;;;;;;;22.42;6.82;;;;;;;;;;5010582;28;20612;-75
2022/07/08 05:31:14;;;;;;;18.58;6.20;;;;;;;;;;5008951;28;20029;-75
2022/07/08 05:33:40;;;;;;;21.92;5.85;;;;;;;;;;5009009;28;20057;-75
2022/07/08 05:36:06;;;;;;;18.63;5.65;;;;;;;;;;5009540;28;20115;-75
2022/07/08 05:38:32;;;;;;;16.30;5.88;;;;;;;;;;5009248;28;20034;-74
2022/07/08 05:40:58;;;;;;;12.80;5.25;;;;;;;;;;5007913;28;20131;-75
2022/07/08 05:43:23;;;;;;;13.88;6.30;;;;;;;;;;4994410;28;20513;-74
2022/07/08 05:45:49;;;;;;;16.92;5.45;;;;;;;;;;5013386;28;20029;-75
2022/07/08 05:48:14;;;;;;;18.70;6.25;;;;;;;;;;5007187;28;20037;-76
2022/07/08 05:50:40;;;;;;;14.15;5.53;;;;;;;;;;5006869;28;20371;-76
2022/07/08 05:53:05;;;;;;;10.10;5.63;;;;;;;;;;5009486;28;20080;-76
2022/07/08 05:55:33;;;;;;;16.38;6.30;;;;;;;;;;5008780;28;20414;-75
2022/07/08 05:58:00;;;;;;;17.33;6.38;;;;;;;;;;5005895;28;20026;-74
2022/07/08 06:00:26;;;;;;;11.90;5.72;;;;;;;;;;5007481;28;20026;-74
2022/07/08 06:02:51;;;;;;;18.42;5.93;;;;;;;;;;5008246;28;20495;-74
2022/07/08 06:05:17;;;;;;;15.25;5.60;;;;;;;;;;5008637;28;20033;-75
2022/07/08 06:07:42;;;;;;;13.10;5.40;;;;;;;;;;5008596;28;20038;-75
2022/07/08 06:10:08;;;;;;;15.85;5.78;;;;;;;;;;5008131;28;20038;-76
2022/07/08 06:12:33;;;;;;;12.98;5.65;;;;;;;;;;5007903;28;20041;-75
2022/07/08 06:14:59;;;;;;;12.45;5.82;;;;;;;;;;5009353;28;20104;-76
2022/07/08 06:17:24;;;;;;;25.58;7.15;;;;;;;;;;5007858;28;20034;-75
2022/07/08 06:19:50;;;;;;;12.10;6.25;;;;;;;;;;5008952;28;20034;-75
2022/07/08 06:22:15;;;;;;;14.80;5.30;;;;;;;;;;5008533;28;20250;-75
2022/07/08 06:24:41;;;;;;;19.88;6.13;;;;;;;;;;5005884;28;20398;-74
2022/07/08 06:27:07;;;;;;;11.27;5.72;;;;;;;;;;5005325;28;20032;-75
2022/07/08 06:29:32;;;;;;;20.70;5.82;;;;;;;;;;5016132;28;20036;-75
2022/07/08 06:31:58;;;;;;;12.73;5.45;;;;;;;;;;5018735;28;20110;-75
2022/07/08 06:34:23;;;;;;;12.20;5.88;;;;;;;;;;5001881;28;20044;-75
2022/07/08 06:36:49;;;;;;;15.10;5.70;;;;;;;;;;5006154;28;20034;-75
2022/07/08 06:39:14;;;;;;;20.10;7.97;;;;;;;;;;5007470;28;20026;-74
2022/07/08 06:41:40;;;;;;;14.02;5.88;;;;;;;;;;5008863;28;20026;-74
2022/07/08 06:44:06;;;;;;;19.23;7.40;;;;;;;;;;5007774;28;20073;-75
2022/07/08 06:46:32;;;;;;;13.45;5.30;;;;;;;;;;5006343;28;20037;-74
2022/07/08 06:48:57;;;;;;;14.07;5.05;;;;;;;;;;5022834;28;20045;-75
2022/07/08 06:51:23;;;;;;;13.95;5.63;;;;;;;;;;5007843;28;20022;-75
2022/07/08 06:56:34;;;;;;;14.75;5.57;;;;;;;;;;5010097;28;20106;-75
2022/07/08 06:58:59;;;;;;;11.77;5.93;;;;;;;;;;5017961;28;20501;-75
2022/07/08 07:01:25;;;;;;;13.25;5.10;;;;;;;;;;5011746;28;20109;-75
2022/07/08 07:03:51;;;;;;;8.55;4.80;;;;;;;;;;5011582;28;20043;-76
2022/07/08 07:06:16;;;;;;;16.98;6.80;;;;;;;;;;5009513;28;20369;-75
2022/07/08 07:08:42;;;;;;;8.43;5.40;;;;;;;;;;5010770;28;20077;-75
2022/07/08 07:11:07;;;;;;;25.80;6.65;;;;;;;;;;5009875;28;20422;-75
2022/07/08 07:13:33;;;;;;;12.18;5.38;;;;;;;;;;5014226;28;20048;-75
2022/07/08 07:15:58;;;;;;;15.10;5.45;;;;;;;;;;5010122;28;20026;-74
2022/07/08 07:18:25;;;;;;;11.35;5.18;;;;;;;;;;5009561;28;20030;-74
2022/07/08 07:20:51;;;;;;;16.38;6.53;;;;;;;;;;5006194;28;20026;-74
2022/07/08 07:23:16;;;;;;;13.88;5.82;;;;;;;;;;5009114;28;20052;-75
2022/07/08 07:25:42;;;;;;;10.65;6.43;;;;;;;;;;5010858;28;20038;-75
2022/07/08 07:28:08;;;;;;;15.60;6.25;;;;;;;;;;5010430;28;20084;-74
2022/07/08 07:30:33;;;;;;;11.40;6.30;;;;;;;;;;5006827;28;20022;-76
2022/07/08 07:32:59;;;;;;;17.85;6.47;;;;;;;;;;5009692;28;20040;-76
2022/07/08 07:35:25;;;;;;;13.85;7.80;;;;;;;;;;5011536;28;20528;-74
2022/07/08 07:37:51;;;;;;;14.77;6.50;;;;;;;;;;5009189;28;20029;-75
2022/07/08 07:40:16;;;;;;;10.43;5.97;;;;;;;;;;5008971;28;20505;-77
2022/07/08 07:42:42;;;;;;;16.23;6.95;;;;;;;;;;5010013;28;20533;-75
2022/07/08 07:45:08;;;;;;;14.20;6.25;;;;;;;;;;5009736;28;20092;-74
2022/07/08 07:47:34;;;;;;;14.95;6.47;;;;;;;;;;5009108;28;20018;-74
2022/07/08 07:49:59;;;;;;;14.20;6.22;;;;;;;;;;5025172;28;20061;-75
2022/07/08 07:52:25;;;;;;;14.38;7.20;;;;;;;;;;5024791;28;20033;-75
2022/07/08 07:54:50;;;;;;;14.45;6.65;;;;;;;;;;5009711;28;20021;-75
2022/07/08 07:57:16;;;;;;;22.13;6.72;;;;;;;;;;5010003;28;20080;-75
2022/07/08 07:59:42;;;;;;;12.45;5.55;;;;;;;;;;5009917;28;20382;-75
2022/07/08 08:02:08;;;;;;;14.80;6.47;;;;;;;;;;5008669;28;20398;-75
2022/07/08 08:04:34;;;;;;;15.20;8.25;;;;;;;;;;5009993;28;20084;-75
2022/07/08 08:07:00;;;;;;;12.05;6.22;;;;;;;;;;5024347;28;20688;-75
2022/07/08 08:09:25;;;;;;;12.25;7.30;;;;;;;;;;5009351;28;20034;-74
2022/07/08 08:11:51;;;;;;;12.10;6.22;;;;;;;;;;5005952;28;20109;-75
2022/07/08 08:14:18;;;;;;;12.80;7.10;;;;;;;;;;5021883;28;20029;-74
2022/07/08 08:16:43;;;;;;;10.60;6.18;;;;;;;;;;5020770;28;20029;-74
2022/07/08 08:19:09;;;;;;;13.52;6.45;;;;;;;;;;5020761;28;20032;-75
2022/07/08 08:21:36;;;;;;;17.58;5.50;;;;;;;;;;5018391;28;20033;-75
2022/07/08 08:24:02;;;;;;;10.13;5.25;;;;;;;;;;5009339;28;20514;-75
2022/07/08 08:26:28;;;;;;;17.17;5.35;;;;;;;;;;5009035;28;20034;-75
2022/07/08 08:28:53;;;;;;;9.05;5.00;;;;;;;;;;5009345;28;20028;-75
2022/07/08 08:31:19;;;;;;;10.90;6.13;;;;;;;;;;5009448;28;20126;-75
2022/07/08 08:33:46;;;;;;;8.80;4.95;;;;;;;;;;5008976;28;20421;-75
2022/07/08 08:36:11;;;;;;;10.85;4.72;;;;;;;;;;5008296;28;20029;-76
2022/07/08 08:38:37;;;;;;;12.68;6.88;;;;;;;;;;5007594;28;20387;-75
2022/07/08 08:41:03;;;;;;;14.38;8.55;;;;;;;;;;5022876;28;20030;-74
2022/07/08 08:43:28;;;;;;;9.52;5.90;;;;;;;;;;5008490;28;20104;-75
2022/07/08 08:45:54;;;;;;;12.15;4.78;;;;;;;;;;5008003;28;20486;-74
2022/07/08 08:48:24;;;;;;;12.25;5.45;;;;;;;;;;5010635;28;20306;-75
2022/07/08 08:50:55;;;;;;;6.07;4.25;;;;;;;;;;5010180;28;20041;-75
2022/07/08 08:53:33;;;;;;;13.50;4.93;;;;;;;;;;5011513;28;20026;-75
2022/07/08 08:56:00;;;;;;;7.35;4.38;;;;;;;;;;5013947;28;20262;-74
2022/07/08 08:58:25;;;;;;;8.02;4.90;;;;;;;;;;5011737;28;20038;-75
2022/07/08 09:00:51;;;;;;;8.70;5.95;;;;;;;;;;5010107;28;20034;-74
2022/07/08 09:03:17;;;;;;;10.20;4.85;;;;;;;;;;5008217;28;20113;-74
2022/07/08 09:05:42;;;;;;;7.10;5.22;;;;;;;;;;5009313;28;20065;-75
2022/07/08 09:08:08;;;;;;;10.30;6.43;;;;;;;;;;5009297;28;20112;-75
2022/07/08 09:10:34;;;;;;;8.52;4.80;;;;;;;;;;5022186;28;20036;-75
2022/07/08 09:13:11;;;;;;;11.35;5.20;;;;;;;;;;5006886;28;20064;-75
2022/07/08 09:15:42;;;;;;;9.18;5.18;;;;;;;;;;5009306;28;20145;-75
2022/07/08 09:18:10;;;;;;;8.50;5.63;;;;;;;;;;5008167;28;20022;-75
2022/07/08 09:20:48;;;;;;;6.88;4.43;;;;;;;;;;5007009;28;20044;-76
2022/07/08 09:23:22;;;;;;;9.25;5.55;;;;;;;;;;5008988;28;20172;-74
2022/07/08 09:25:50;;;;;;;9.73;4.93;;;;;;;;;;5008507;28;20199;-76
2022/07/08 09:28:20;;;;;;;11.18;4.82;;;;;;;;;;5008406;28;20048;-76
2022/07/08 09:30:45;;;;;;;6.50;4.53;;;;;;;;;;5006963;28;20433;-74
2022/07/08 09:33:12;;;;;;;11.25;5.35;;;;;;;;;;5006167;28;20014;-75
2022/07/08 09:35:40;;;;;;;7.10;4.43;;;;;;;;;;5009108;28;20021;-76
2022/07/08 09:38:07;;;;;;;5.55;4.45;;;;;;;;;;5008051;28;20029;-76
2022/07/08 09:40:34;;;;;;;11.43;4.72;;;;;;;;;;5008773;28;20029;-76
2022/07/08 09:43:02;;;;;;;8.02;4.85;;;;;;;;;;5009063;28;20037;-75
2022/07/08 09:45:30;;;;;;;8.40;4.25;;;;;;;;;;5007436;28;20425;-76
2022/07/08 09:48:03;;;;;;;6.32;4.38;;;;;;;;;;5006868;28;20037;-76
2022/07/08 09:50:42;;;;;;;9.93;4.97;;;;;;;;;;5024007;28;20093;-76
2022/07/08 09:53:28;;;;;;;5.25;4.20;;;;;;;;;;5007599;28;20025;-76
2022/07/08 09:55:56;;;;;;;6.30;3.60;;;;;;;;;;5008637;28;20065;-75
2022/07/08 09:58:26;;;;;;;10.00;4.38;;;;;;;;;;5021414;28;20115;-75
2022/07/08 10:00:54;;;;;;;6.28;3.88;;;;;;;;;;5008076;28;20033;-76
2022/07/08 10:03:21;;;;;;;4.70;3.22;;;;;;;;;;5007743;28;20042;-76
2022/07/08 10:05:48;;;;;;;4.82;3.10;;;;;;;;;;5009049;28;20105;-75
2022/07/08 10:08:14;;;;;;;5.20;3.17;;;;;;;;;;5009125;28;20026;-76
2022/07/08 10:10:42;;;;;;;3.63;3.22;;;;;;;;;;5009197;28;20022;-76
2022/07/08 10:13:09;;;;;;;7.65;3.70;;;;;;;;;;5009160;28;20320;-76
2022/07/08 10:15:37;;;;;;;7.05;4.20;;;;;;;;;;5008966;28;20595;-76
2022/07/08 10:18:14;;;;;;;10.15;3.85;;;;;;;;;;4988336;28;20483;-76
2022/07/08 10:20:44;;;;;;;8.25;4.65;;;;;;;;;;5006891;28;20018;-76
2022/07/08 10:23:33;;;;;;;7.20;3.63;;;;;;;;;;5008274;28;20026;-77
2022/07/08 10:26:00;;;;;;;9.60;3.33;;;;;;;;;;5009674;28;20041;-75
2022/07/08 10:28:40;;;;;;;7.80;4.72;;;;;;;;;;5007972;28;20386;-76
2022/07/08 10:31:24;;;;;;;7.72;3.25;;;;;;;;;;4994304;28;20056;-75
2022/07/08 10:34:00;;;;;;;4.97;3.67;;;;;;;;;;5010416;28;20398;-75
2022/07/08 10:36:25;;;;;;;6.35;3.20;;;;;;;;;;5012372;28;20030;-75
2022/07/08 10:38:54;;;;;;;7.68;4.47;;;;;;;;;;5011066;28;20030;-77
2022/07/08 10:41:22;;;;;;;14.38;4.60;;;;;;;;;;5013159;28;20022;-76
2022/07/08 10:43:58;;;;;;;11.30;7.75;;;;;;;;;;5009520;28;20402;-76
2022/07/08 10:46:27;;;;;;;10.32;4.20;;;;;;;;;;5011935;28;20069;-75
2022/07/08 10:48:55;;;;;;;7.97;3.33;;;;;;;;;;5027507;28;20044;-75
2022/07/08 10:51:24;;;;;;;3.83;2.90;;;;;;;;;;5012292;28;20022;-76
2022/07/08 10:53:54;;;;;;;7.10;3.70;;;;;;;;;;5012648;28;20037;-76
2022/07/08 10:56:49;;;;;;;20.53;8.73;;;;;;;;;;5012951;28;20036;-76
2022/07/08 10:59:37;;;;;;;4.60;3.60;;;;;;;;;;4998354;28;20021;-76
2022/07/08 11:02:12;;;;;;;7.40;2.97;;;;;;;;;;5010593;28;20048;-76
2022/07/08 11:04:37;;;;;;;4.88;3.50;;;;;;;;;;5027261;28;20022;-75
2022/07/08 11:09:50;;;;;;;7.25;4.05;;;;;;;;;;5012587;28;20063;-75
2022/07/08 11:12:20;;;;;;;;;;;;;;;;;;5027794;28;20037;-76
2022/07/08 11:14:47;;;;;;;3.80;3.08;;;;;;;;;;5011966;28;19921;-77
2022/07/08 11:17:18;;;;;;;4.72;3.38;;;;;;;;;;4991850;28;20042;-76
2022/07/08 11:19:45;;;;;;;10.18;5.93;;;;;;;;;;5007748;28;20026;-76
2022/07/08 11:22:15;;;;;;;6.10;3.65;;;;;;;;;;5008320;28;20505;-77
2022/07/08 11:24:43;;;;;;;3.60;2.90;;;;;;;;;;5010889;28;20082;-75
2022/07/08 11:27:10;;;;;;;5.93;3.33;;;;;;;;;;4994936;28;20091;-76
2022/07/08 11:29:37;;;;;;;7.20;2.65;;;;;;;;;;5005654;28;20029;-76
2022/07/08 11:32:05;;;;;;;3.53;3.22;;;;;;;;;;5024438;28;20030;-76
2022/07/08 11:34:32;;;;;;;5.25;4.20;;;;;;;;;;4989769;28;20574;-76
2022/07/08 11:36:59;;;;;;;7.15;2.95;;;;;;;;;;4991384;28;20056;-76
2022/07/08 11:39:26;;;;;;;5.57;2.83;;;;;;;;;;4992688;28;20038;-76
2022/07/08 11:41:52;;;;;;;4.95;2.55;;;;;;;;;;4992367;28;20414;-75
2022/07/08 11:44:20;;;;;;;4.60;2.78;;;;;;;;;;4993326;28;20022;-77
2022/07/08 11:46:53;;;;;;;3.72;2.67;;;;;;;;;;4992818;28;20037;-75
2022/07/08 11:49:24;;;;;;;5.80;2.63;;;;;;;;;;4991629;28;20061;-77
2022/07/08 11:51:51;;;;;;;;;;;;;;;;;;4992451;28;20035;-75
2022/07/08 11:54:21;;;;;;;7.32;2.03;;;;;;;;;;4992171;28;19914;-76
2022/07/08 11:56:47;;;;;;;3.75;2.75;;;;;;;;;;4992046;28;20026;-76
2022/07/08 11:59:27;;;;;;;9.23;2.55;;;;;;;;;;4992758;28;20049;-76
2022/07/08 12:01:54;;;;;;;6.35;2.83;;;;;;;;;;5009034;28;20030;-75
2022/07/08 12:04:21;;;;;;;9.50;3.22;;;;;;;;;;4993534;28;20026;-75
2022/07/08 12:06:54;;;;;;;7.90;2.20;;;;;;;;;;4991848;28;20161;-76
2022/07/08 12:09:23;;;;;;;3.10;2.10;;;;;;;;;;4991292;28;20034;-75
2022/07/08 12:11:51;;;;;;;7.82;2.58;;;;;;;;;;4992578;28;20037;-76
2022/07/08 12:14:17;;;;;;;8.02;2.55;;;;;;;;;;4992586;28;20038;-76
2022/07/08 12:16:56;;;;;;;5.72;2.42;;;;;;;;;;4990718;28;20022;-75
2022/07/08 12:19:27;;;;;;;6.10;2.45;;;;;;;;;;4991391;28;20026;-76
2022/07/08 12:21:54;;;;;;;8.35;3.08;;;;;;;;;;4992085;28;20026;-76
2022/07/08 12:24:40;;;;;;;4.43;2.15;;;;;;;;;;5011903;28;20383;-75
2022/07/08 12:27:16;;;;;;;22.00;2.83;;;;;;;;;;5011836;28;20044;-76
2022/07/08 12:29:42;;;;;;;11.45;2.80;;;;;;;;;;5012247;28;20022;-76
2022/07/08 12:32:12;;;;;;;6.97;2.63;;;;;;;;;;5010618;28;20022;-76
2022/07/08 12:34:49;;;;;;;5.30;2.17;;;;;;;;;;5011153;28;20028;-75
2022/07/08 12:37:20;;;;;;;4.20;1.95;;;;;;;;;;5012163;28;20109;-76
2022/07/08 12:39:47;;;;;;;4.13;1.58;;;;;;;;;;5010139;28;20498;-76
2022/07/08 12:42:33;;;;;;;5.63;2.28;;;;;;;;;;4994306;28;20068;-76
2022/07/08 12:44:59;;;;;;;4.07;1.85;;;;;;;;;;5027349;28;20029;-76
2022/07/08 12:47:26;;;;;;;4.03;2.05;;;;;;;;;;5010363;28;20042;-76
2022/07/08 12:49:55;;;;;;;5.05;2.83;;;;;;;;;;5011413;28;20064;-75
2022/07/08 12:52:21;;;;;;;2.30;2.08;;;;;;;;;;5010515;28;20021;-75
2022/07/08 12:54:49;;;;;;;4.82;1.80;;;;;;;;;;5011991;28;20488;-76
2022/07/08 12:57:15;;;;;;;5.50;2.70;;;;;;;;;;5010187;28;20040;-76
2022/07/08 12:59:40;;;;;;;3.67;1.98;;;;;;;;;;5026578;28;20026;-77
2022/07/08 13:02:07;;;;;;;6.90;2.38;;;;;;;;;;5009795;28;20030;-76
2022/07/08 13:04:33;;;;;;;6.88;2.47;;;;;;;;;;5011442;28;20112;-76
2022/07/08 13:06:59;;;;;;;5.30;2.50;;;;;;;;;;5011728;28;20029;-76
2022/07/08 13:09:25;;;;;;;4.70;2.08;;;;;;;;;;5011135;28;20120;-76
2022/07/08 13:11:51;;;;;;;4.75;2.05;;;;;;;;;;5012924;28;20478;-76
2022/07/08 13:14:19;;;;;;;4.47;2.30;;;;;;;;;;5012670;28;20124;-76
2022/07/08 13:16:45;;;;;;;7.30;2.80;;;;;;;;;;5003782;28;20462;-77
2022/07/08 13:19:11;;;;;;;8.80;3.88;;;;;;;;;;5025289;28;20022;-75
2022/07/08 13:21:38;;;;;;;3.25;2.90;;;;;;;;;;5025710;28;20114;-76
2022/07/08 13:24:04;;;;;;;5.65;3.42;;;;;;;;;;5003239;28;20050;-75
2022/07/08 13:26:30;;;;;;;7.40;2.45;;;;;;;;;;5015422;28;20034;-75
2022/07/08 13:28:56;;;;;;;4.57;2.20;;;;;;;;;;5013232;28;20030;-76
2022/07/08 13:31:22;;;;;;;5.57;3.33;;;;;;;;;;5012053;28;20087;-76
2022/07/08 13:33:52;;;;;;;13.70;2.97;;;;;;;;;;5012381;28;20462;-77
2022/07/08 13:36:19;;;;;;;8.75;2.75;;;;;;;;;;4994901;28;20032;-76
2022/07/08 13:38:48;;;;;;;4.90;2.90;;;;;;;;;;5010136;28;20127;-77
2022/07/08 13:41:15;;;;;;;13.00;3.47;;;;;;;;;;5026914;28;20068;-76
2022/07/08 13:43:41;;;;;;;5.78;2.90;;;;;;;;;;5009965;28;20056;-76
2022/07/08 13:46:08;;;;;;;5.50;2.72;;;;;;;;;;5010009;28;20090;-76
2022/07/08 13:48:34;;;;;;;3.17;2.40;;;;;;;;;;5009511;28;20501;-76
2022/07/08 13:51:00;;;;;;;6.72;2.88;;;;;;;;;;5009438;28;20037;-76
2022/07/08 13:53:25;;;;;;;8.05;4.15;;;;;;;;;;5009264;28;20034;-76
2022/07/08 13:55:51;;;;;;;19.15;5.05;;;;;;;;;;5010395;28;20022;-77
2022/07/08 13:58:16;;;;;;;7.20;3.50;;;;;;;;;;5025528;28;20032;-75
2022/07/08 14:00:42;;;;;;;6.88;4.10;;;;;;;;;;5009906;28;20045;-76
2022/07/08 14:03:09;;;;;;;9.82;3.95;;;;;;;;;;5008634;28;20048;-75
2022/07/08 14:05:37;;;;;;;8.38;4.70;;;;;;;;;;5010051;28;20029;-76
2022/07/08 14:08:03;;;;;;;7.30;4.30;;;;;;;;;;5009256;28;20390;-76
2022/07/08 14:10:28;;;;;;;13.43;5.10;;;;;;;;;;5009714;28;20109;-75
2022/07/08 14:12:54;;;;;;;7.03;4.88;;;;;;;;;;5008881;28;20021;-76
2022/07/08 14:15:20;;;;;;;10.02;4.80;;;;;;;;;;5009129;28;20561;-77
2022/07/08 14:17:47;;;;;;;9.45;4.95;;;;;;;;;;5026297;28;20112;-76
2022/07/08 14:20:13;;;;;;;9.30;5.47;;;;;;;;;;5009373;28;20064;-76
2022/07/08 14:22:38;;;;;;;10.38;5.57;;;;;;;;;;5025164;28;20029;-76
2022/07/08 14:25:05;;;;;;;15.13;5.97;;;;;;;;;;5010459;28;20038;-77
2022/07/08 14:27:31;;;;;;;6.90;4.53;;;;;;;;;;5010398;28;20068;-75
2022/07/08 14:29:57;;;;;;;7.18;5.30;;;;;;;;;;5025563;28;20034;-76
2022/07/08 14:32:22;;;;;;;12.32;6.90;;;;;;;;;;5009423;28;20202;-76
2022/07/08 14:34:48;;;;;;;11.27;5.15;;;;;;;;;;5010133;28;20042;-76
2022/07/08 14:37:13;;;;;;;8.98;6.13;;;;;;;;;;5008657;28;20092;-76
2022/07/08 14:39:39;;;;;;;8.02;6.25;;;;;;;;;;5025061;28;20022;-76
2022/07/08 14:42:05;;;;;;;8.90;6.78;;;;;;;;;;5010171;28;20034;-75